sensor_id;sensor_type;location;lat;lon;timestamp;pressure;altitude;pressure_sealevel;temperature;humidity
39773;BME280;25451;51.960;6.250;2023-06-26T00:00:22;101108.66;;;25.54;53.03
39773;BME280;25451;51.960;6.250;2023-06-26T00:02:47;101103.69;;;25.51;53.23
39773;BME280;25451;51.960;6.250;2023-06-26T00:05:13;101100.41;;;25.40;53.31
39773;BME280;25451;51.960;6.250;2023-06-26T00:07:39;101090.44;;;25.43;53.40
39773;BME280;25451;51.960;6.250;2023-06-26T00:10:05;101095.59;;;25.41;53.40
39773;BME280;25451;51.960;6.250;2023-06-26T00:12:31;101098.41;;;25.41;53.20
39773;BME280;25451;51.960;6.250;2023-06-26T00:14:56;101086.75;;;25.34;53.44
39773;BME280;25451;51.960;6.250;2023-06-26T00:17:22;101094.06;;;25.35;53.45
39773;BME280;25451;51.960;6.250;2023-06-26T00:19:48;101092.41;;;25.34;53.54
39773;BME280;25451;51.960;6.250;2023-06-26T00:22:13;101088.59;;;25.30;53.64
39773;BME280;25451;51.960;6.250;2023-06-26T00:24:39;101086.44;;;25.27;53.79
39773;BME280;25451;51.960;6.250;2023-06-26T00:27:04;101087.97;;;25.24;53.61
39773;BME280;25451;51.960;6.250;2023-06-26T00:29:29;101082.97;;;25.21;53.53
39773;BME280;25451;51.960;6.250;2023-06-26T00:31:55;101072.66;;;25.17;53.98
39773;BME280;25451;51.960;6.250;2023-06-26T00:34:20;101071.19;;;25.11;53.74
39773;BME280;25451;51.960;6.250;2023-06-26T00:36:45;101062.91;;;25.06;53.88
39773;BME280;25451;51.960;6.250;2023-06-26T00:39:11;101060.41;;;25.04;53.99
39773;BME280;25451;51.960;6.250;2023-06-26T00:41:37;101059.44;;;25.00;53.92
39773;BME280;25451;51.960;6.250;2023-06-26T00:44:06;101057.91;;;25.03;53.80
39773;BME280;25451;51.960;6.250;2023-06-26T00:46:32;101042.16;;;24.93;53.87
39773;BME280;25451;51.960;6.250;2023-06-26T00:49:02;101055.78;;;25.00;53.81
39773;BME280;25451;51.960;6.250;2023-06-26T00:51:31;101046.97;;;24.93;54.18
39773;BME280;25451;51.960;6.250;2023-06-26T00:53:57;101049.47;;;24.94;54.05
39773;BME280;25451;51.960;6.250;2023-06-26T00:56:23;101050.13;;;24.91;54.03
39773;BME280;25451;51.960;6.250;2023-06-26T00:58:48;101053.63;;;24.88;53.89
39773;BME280;25451;51.960;6.250;2023-06-26T01:01:14;101052.31;;;24.86;54.22
39773;BME280;25451;51.960;6.250;2023-06-26T01:03:43;101050.13;;;24.83;54.17
39773;BME280;25451;51.960;6.250;2023-06-26T01:06:10;101046.31;;;24.79;54.09
39773;BME280;25451;51.960;6.250;2023-06-26T01:08:38;101039.03;;;24.78;54.08
39773;BME280;25451;51.960;6.250;2023-06-26T01:11:04;101034.88;;;24.75;54.22
39773;BME280;25451;51.960;6.250;2023-06-26T01:13:29;101033.84;;;24.71;54.30
39773;BME280;25451;51.960;6.250;2023-06-26T01:15:57;101024.06;;;24.68;54.15
39773;BME280;25451;51.960;6.250;2023-06-26T01:18:23;101029.41;;;24.61;54.45
39773;BME280;25451;51.960;6.250;2023-06-26T01:20:50;101034.19;;;24.61;54.26
39773;BME280;25451;51.960;6.250;2023-06-26T01:23:24;101035.03;;;24.61;54.54
39773;BME280;25451;51.960;6.250;2023-06-26T01:26:14;101040.19;;;24.59;54.14
39773;BME280;25451;51.960;6.250;2023-06-26T01:28:42;101047.31;;;24.57;54.50
39773;BME280;25451;51.960;6.250;2023-06-26T01:31:10;101033.72;;;24.50;54.48
39773;BME280;25451;51.960;6.250;2023-06-26T01:33:36;101042.66;;;24.52;54.27
39773;BME280;25451;51.960;6.250;2023-06-26T01:36:02;101023.41;;;24.46;54.43
39773;BME280;25451;51.960;6.250;2023-06-26T01:38:28;101037.69;;;24.49;54.63
39773;BME280;25451;51.960;6.250;2023-06-26T01:40:53;101028.41;;;24.40;54.40
39773;BME280;25451;51.960;6.250;2023-06-26T01:46:03;101039.69;;;24.40;54.77
39773;BME280;25451;51.960;6.250;2023-06-26T01:48:40;101034.19;;;24.35;54.93
39773;BME280;25451;51.960;6.250;2023-06-26T01:51:08;101030.88;;;24.33;54.92
39773;BME280;25451;51.960;6.250;2023-06-26T01:53:37;101034.53;;;24.34;54.73
39773;BME280;25451;51.960;6.250;2023-06-26T01:56:07;101025.41;;;24.28;54.97
39773;BME280;25451;51.960;6.250;2023-06-26T01:58:35;101033.53;;;24.30;55.00
39773;BME280;25451;51.960;6.250;2023-06-26T02:01:01;101036.69;;;24.28;55.29
39773;BME280;25451;51.960;6.250;2023-06-26T02:03:26;101042.97;;;24.25;55.11
39773;BME280;25451;51.960;6.250;2023-06-26T02:05:52;101040.84;;;24.22;55.11
39773;BME280;25451;51.960;6.250;2023-06-26T02:08:17;101038.16;;;24.17;55.52
39773;BME280;25451;51.960;6.250;2023-06-26T02:10:42;101040.16;;;24.08;55.28
39773;BME280;25451;51.960;6.250;2023-06-26T02:13:08;101061.41;;;24.14;55.34
39773;BME280;25451;51.960;6.250;2023-06-26T02:15:33;101047.63;;;24.04;55.48
39773;BME280;25451;51.960;6.250;2023-06-26T02:17:58;101061.56;;;24.09;55.61
39773;BME280;25451;51.960;6.250;2023-06-26T02:20:24;101057.72;;;24.05;55.76
39773;BME280;25451;51.960;6.250;2023-06-26T02:22:49;101064.22;;;24.06;55.75
39773;BME280;25451;51.960;6.250;2023-06-26T02:25:14;101067.63;;;24.03;55.86
39773;BME280;25451;51.960;6.250;2023-06-26T02:27:40;101073.63;;;24.01;56.19
39773;BME280;25451;51.960;6.250;2023-06-26T02:30:07;101075.44;;;23.97;55.85
39773;BME280;25451;51.960;6.250;2023-06-26T02:32:33;101062.16;;;23.89;56.01
39773;BME280;25451;51.960;6.250;2023-06-26T02:34:58;101067.13;;;23.92;56.34
39773;BME280;25451;51.960;6.250;2023-06-26T02:37:24;101068.97;;;23.88;56.19
39773;BME280;25451;51.960;6.250;2023-06-26T02:39:49;101082.22;;;23.87;56.60
39773;BME280;25451;51.960;6.250;2023-06-26T02:42:14;101071.78;;;23.88;56.72
39773;BME280;25451;51.960;6.250;2023-06-26T02:44:39;101059.00;;;23.82;56.59
39773;BME280;25451;51.960;6.250;2023-06-26T02:47:05;101066.94;;;23.80;56.88
39773;BME280;25451;51.960;6.250;2023-06-26T02:49:30;101073.91;;;23.82;56.65
39773;BME280;25451;51.960;6.250;2023-06-26T02:51:56;101072.59;;;23.80;56.99
39773;BME280;25451;51.960;6.250;2023-06-26T02:54:21;101073.72;;;23.79;56.65
39773;BME280;25451;51.960;6.250;2023-06-26T02:56:46;101058.63;;;23.75;56.89
39773;BME280;25451;51.960;6.250;2023-06-26T02:59:12;101075.53;;;23.75;56.84
39773;BME280;25451;51.960;6.250;2023-06-26T03:01:37;101066.06;;;23.71;57.08
39773;BME280;25451;51.960;6.250;2023-06-26T03:04:03;101064.22;;;23.66;57.04
39773;BME280;25451;51.960;6.250;2023-06-26T03:06:29;101074.69;;;23.66;57.35
39773;BME280;25451;51.960;6.250;2023-06-26T03:08:54;101072.19;;;23.64;57.22
39773;BME280;25451;51.960;6.250;2023-06-26T03:11:19;101085.97;;;23.66;57.33
39773;BME280;25451;51.960;6.250;2023-06-26T03:13:45;101088.59;;;23.62;57.44
39773;BME280;25451;51.960;6.250;2023-06-26T03:16:10;101081.44;;;23.56;57.42
39773;BME280;25451;51.960;6.250;2023-06-26T03:18:36;101077.28;;;23.54;57.54
39773;BME280;25451;51.960;6.250;2023-06-26T03:21:01;101095.19;;;23.58;57.46
39773;BME280;25451;51.960;6.250;2023-06-26T03:23:26;101101.50;;;23.55;57.50
39773;BME280;25451;51.960;6.250;2023-06-26T03:25:53;101099.31;;;23.52;57.58
39773;BME280;25451;51.960;6.250;2023-06-26T03:28:18;101105.59;;;23.49;57.63
39773;BME280;25451;51.960;6.250;2023-06-26T03:30:43;101102.78;;;23.49;57.67
39773;BME280;25451;51.960;6.250;2023-06-26T03:33:09;101101.59;;;23.41;57.76
39773;BME280;25451;51.960;6.250;2023-06-26T03:35:34;101100.09;;;23.44;57.66
39773;BME280;25451;51.960;6.250;2023-06-26T03:37:59;101106.56;;;23.44;57.64
39773;BME280;25451;51.960;6.250;2023-06-26T03:40:26;101107.41;;;23.45;57.94
39773;BME280;25451;51.960;6.250;2023-06-26T03:42:51;101111.38;;;23.44;57.87
39773;BME280;25451;51.960;6.250;2023-06-26T03:45:17;101098.56;;;23.38;57.75
39773;BME280;25451;51.960;6.250;2023-06-26T03:47:44;101100.75;;;23.41;57.98
39773;BME280;25451;51.960;6.250;2023-06-26T03:50:09;101111.69;;;23.42;58.03
39773;BME280;25451;51.960;6.250;2023-06-26T03:52:35;101119.97;;;23.39;58.00
39773;BME280;25451;51.960;6.250;2023-06-26T03:55:00;101118.28;;;23.38;57.99
39773;BME280;25451;51.960;6.250;2023-06-26T03:57:25;101121.63;;;23.40;57.78
39773;BME280;25451;51.960;6.250;2023-06-26T03:59:52;101120.81;;;23.39;58.14
39773;BME280;25451;51.960;6.250;2023-06-26T04:02:18;101109.66;;;23.34;58.23
39773;BME280;25451;51.960;6.250;2023-06-26T04:04:43;101125.59;;;23.39;58.17
39773;BME280;25451;51.960;6.250;2023-06-26T04:07:09;101101.00;;;23.31;58.12
39773;BME280;25451;51.960;6.250;2023-06-26T04:09:34;101136.03;;;23.38;58.23
39773;BME280;25451;51.960;6.250;2023-06-26T04:11:59;101125.09;;;23.37;58.56
39773;BME280;25451;51.960;6.250;2023-06-26T04:14:25;101132.72;;;23.36;58.24
39773;BME280;25451;51.960;6.250;2023-06-26T04:16:50;101129.91;;;23.36;58.61
39773;BME280;25451;51.960;6.250;2023-06-26T04:19:15;101132.38;;;23.38;58.47
39773;BME280;25451;51.960;6.250;2023-06-26T04:21:41;101136.69;;;23.35;58.71
39773;BME280;25451;51.960;6.250;2023-06-26T04:24:06;101132.72;;;23.36;58.69
39773;BME280;25451;51.960;6.250;2023-06-26T04:26:32;101133.88;;;23.35;58.43
39773;BME280;25451;51.960;6.250;2023-06-26T04:28:57;101118.88;;;23.26;58.58
39773;BME280;25451;51.960;6.250;2023-06-26T04:31:23;101143.81;;;23.33;58.62
39773;BME280;25451;51.960;6.250;2023-06-26T04:33:48;101141.28;;;23.31;58.77
39773;BME280;25451;51.960;6.250;2023-06-26T04:36:16;101158.41;;;23.35;58.84
39773;BME280;25451;51.960;6.250;2023-06-26T04:38:42;101146.72;;;23.28;59.04
39773;BME280;25451;51.960;6.250;2023-06-26T04:41:07;101156.72;;;23.34;59.12
39773;BME280;25451;51.960;6.250;2023-06-26T04:43:32;101162.34;;;23.34;59.30
39773;BME280;25451;51.960;6.250;2023-06-26T04:45:58;101165.78;;;23.31;59.19
39773;BME280;25451;51.960;6.250;2023-06-26T04:48:23;101171.13;;;23.32;59.19
39773;BME280;25451;51.960;6.250;2023-06-26T04:50:48;101161.97;;;23.27;59.34
39773;BME280;25451;51.960;6.250;2023-06-26T04:53:19;101173.31;;;23.35;59.36
39773;BME280;25451;51.960;6.250;2023-06-26T04:55:44;101181.97;;;23.39;59.33
39773;BME280;25451;51.960;6.250;2023-06-26T04:58:09;101177.97;;;23.40;59.57
39773;BME280;25451;51.960;6.250;2023-06-26T05:00:35;101171.72;;;23.43;59.54
39773;BME280;25451;51.960;6.250;2023-06-26T05:03:01;101167.53;;;23.40;59.80
39773;BME280;25451;51.960;6.250;2023-06-26T05:05:27;101174.69;;;23.46;59.67
39773;BME280;25451;51.960;6.250;2023-06-26T05:07:56;101188.78;;;23.46;59.99
39773;BME280;25451;51.960;6.250;2023-06-26T05:10:22;101182.31;;;23.46;60.01
39773;BME280;25451;51.960;6.250;2023-06-26T05:12:47;101184.97;;;23.42;60.12
39773;BME280;25451;51.960;6.250;2023-06-26T05:15:13;101198.94;;;23.47;59.95
39773;BME280;25451;51.960;6.250;2023-06-26T05:17:38;101189.13;;;23.45;60.19
39773;BME280;25451;51.960;6.250;2023-06-26T05:20:04;101191.78;;;23.50;60.20
39773;BME280;25451;51.960;6.250;2023-06-26T05:22:33;101187.94;;;23.46;60.15
39773;BME280;25451;51.960;6.250;2023-06-26T05:25:00;101204.09;;;23.54;59.88
39773;BME280;25451;51.960;6.250;2023-06-26T05:27:28;101203.63;;;23.60;60.13
39773;BME280;25451;51.960;6.250;2023-06-26T05:29:54;101207.16;;;23.66;59.77
39773;BME280;25451;51.960;6.250;2023-06-26T05:32:19;101209.84;;;23.71;60.01
39773;BME280;25451;51.960;6.250;2023-06-26T05:34:48;101205.72;;;23.77;59.72
39773;BME280;25451;51.960;6.250;2023-06-26T05:37:20;101214.06;;;23.82;59.73
39773;BME280;25451;51.960;6.250;2023-06-26T05:39:46;101205.63;;;23.90;59.95
39773;BME280;25451;51.960;6.250;2023-06-26T05:42:12;101209.53;;;24.03;59.68
39773;BME280;25451;51.960;6.250;2023-06-26T05:44:37;101212.56;;;24.15;59.23
39773;BME280;25451;51.960;6.250;2023-06-26T05:47:03;101214.78;;;24.27;59.40
39773;BME280;25451;51.960;6.250;2023-06-26T05:49:28;101211.66;;;24.37;59.20
39773;BME280;25451;51.960;6.250;2023-06-26T05:51:53;101222.16;;;24.53;59.09
39773;BME280;25451;51.960;6.250;2023-06-26T05:54:19;101230.00;;;24.65;58.61
39773;BME280;25451;51.960;6.250;2023-06-26T05:56:45;101235.19;;;24.80;58.48
39773;BME280;25451;51.960;6.250;2023-06-26T05:59:11;101234.03;;;24.90;58.19
39773;BME280;25451;51.960;6.250;2023-06-26T06:01:39;101231.53;;;24.97;58.32
39773;BME280;25451;51.960;6.250;2023-06-26T06:04:05;101248.34;;;25.02;57.99
39773;BME280;25451;51.960;6.250;2023-06-26T06:06:30;101247.16;;;25.03;57.80
39773;BME280;25451;51.960;6.250;2023-06-26T06:08:55;101250.84;;;25.03;58.11
39773;BME280;25451;51.960;6.250;2023-06-26T06:11:21;101241.84;;;25.01;57.80
39773;BME280;25451;51.960;6.250;2023-06-26T06:13:47;101250.00;;;25.03;57.94
39773;BME280;25451;51.960;6.250;2023-06-26T06:16:13;101263.81;;;25.04;57.51
39773;BME280;25451;51.960;6.250;2023-06-26T06:18:38;101262.97;;;25.04;57.68
39773;BME280;25451;51.960;6.250;2023-06-26T06:21:03;101269.59;;;24.99;57.50
39773;BME280;25451;51.960;6.250;2023-06-26T06:23:29;101272.78;;;24.98;57.42
39773;BME280;25451;51.960;6.250;2023-06-26T06:25:54;101273.91;;;24.97;57.34
39773;BME280;25451;51.960;6.250;2023-06-26T06:28:19;101287.22;;;24.96;57.50
39773;BME280;25451;51.960;6.250;2023-06-26T06:30:44;101271.06;;;24.88;57.38
39773;BME280;25451;51.960;6.250;2023-06-26T06:33:12;101284.72;;;24.95;57.43
39773;BME280;25451;51.960;6.250;2023-06-26T06:35:38;101287.41;;;25.00;57.32
39773;BME280;25451;51.960;6.250;2023-06-26T06:38:03;101299.53;;;25.09;57.16
39773;BME280;25451;51.960;6.250;2023-06-26T06:40:28;101308.34;;;25.16;56.63
39773;BME280;25451;51.960;6.250;2023-06-26T06:42:54;101323.31;;;25.25;56.83
39773;BME280;25451;51.960;6.250;2023-06-26T06:45:19;101312.34;;;25.32;56.43
39773;BME280;25451;51.960;6.250;2023-06-26T06:47:45;101311.53;;;25.40;56.40
39773;BME280;25451;51.960;6.250;2023-06-26T06:50:11;101300.22;;;25.40;56.13
39773;BME280;25451;51.960;6.250;2023-06-26T06:52:38;101311.91;;;25.47;55.90
39773;BME280;25451;51.960;6.250;2023-06-26T06:55:05;101324.88;;;25.57;55.89
39773;BME280;25451;51.960;6.250;2023-06-26T06:57:34;101336.50;;;25.64;55.40
39773;BME280;25451;51.960;6.250;2023-06-26T07:00:06;101324.53;;;25.75;55.15
39773;BME280;25451;51.960;6.250;2023-06-26T07:02:34;101316.19;;;25.79;55.02
39773;BME280;25451;51.960;6.250;2023-06-26T07:05:01;101322.50;;;25.93;54.89
39773;BME280;25451;51.960;6.250;2023-06-26T07:07:28;101330.63;;;26.03;54.58
39773;BME280;25451;51.960;6.250;2023-06-26T07:09:54;101341.63;;;26.13;54.33
39773;BME280;25451;51.960;6.250;2023-06-26T07:12:20;101337.78;;;26.17;53.90
39773;BME280;25451;51.960;6.250;2023-06-26T07:14:45;101347.41;;;26.34;53.82
39773;BME280;25451;51.960;6.250;2023-06-26T07:17:10;101342.06;;;26.41;53.67
39773;BME280;25451;51.960;6.250;2023-06-26T07:19:35;101352.81;;;26.56;53.31
39773;BME280;25451;51.960;6.250;2023-06-26T07:22:01;101350.28;;;26.63;53.06
39773;BME280;25451;51.960;6.250;2023-06-26T07:24:26;101359.28;;;26.73;52.55
39773;BME280;25451;51.960;6.250;2023-06-26T07:26:51;101357.09;;;26.79;52.46
39773;BME280;25451;51.960;6.250;2023-06-26T07:29:17;101355.00;;;26.88;51.96
39773;BME280;25451;51.960;6.250;2023-06-26T07:31:42;101362.50;;;26.92;51.79
39773;BME280;25451;51.960;6.250;2023-06-26T07:34:07;101354.97;;;26.96;51.49
39773;BME280;25451;51.960;6.250;2023-06-26T07:36:33;101370.06;;;27.09;51.27
39773;BME280;25451;51.960;6.250;2023-06-26T07:38:58;101363.66;;;27.21;51.03
39773;BME280;25451;51.960;6.250;2023-06-26T07:41:23;101376.63;;;27.30;50.94
39773;BME280;25451;51.960;6.250;2023-06-26T07:43:49;101377.06;;;27.41;50.79
39773;BME280;25451;51.960;6.250;2023-06-26T07:46:14;101390.03;;;27.50;50.61
39773;BME280;25451;51.960;6.250;2023-06-26T07:48:40;101379.03;;;27.49;50.15
39773;BME280;25451;51.960;6.250;2023-06-26T07:51:05;101389.97;;;27.59;50.36
39773;BME280;25451;51.960;6.250;2023-06-26T07:53:30;101393.28;;;27.61;50.25
39773;BME280;25451;51.960;6.250;2023-06-26T07:55:56;101398.13;;;27.60;49.93
39773;BME280;25451;51.960;6.250;2023-06-26T07:58:21;101397.16;;;27.56;49.97
39773;BME280;25451;51.960;6.250;2023-06-26T08:00:46;101390.38;;;27.49;50.23
39773;BME280;25451;51.960;6.250;2023-06-26T08:03:12;101391.88;;;27.46;49.99
39773;BME280;25451;51.960;6.250;2023-06-26T08:05:37;101401.38;;;27.50;49.80
39773;BME280;25451;51.960;6.250;2023-06-26T08:08:02;101394.03;;;27.49;49.81
39773;BME280;25451;51.960;6.250;2023-06-26T08:10:28;101393.13;;;27.57;49.66
39773;BME280;25451;51.960;6.250;2023-06-26T08:12:54;101386.00;;;27.51;49.54
39773;BME280;25451;51.960;6.250;2023-06-26T08:15:19;101405.19;;;27.54;49.22
39773;BME280;25451;51.960;6.250;2023-06-26T08:17:44;101405.84;;;27.51;49.22
39773;BME280;25451;51.960;6.250;2023-06-26T08:20:10;101410.63;;;27.59;49.05
39773;BME280;25451;51.960;6.250;2023-06-26T08:22:36;101413.53;;;27.71;48.96
39773;BME280;25451;51.960;6.250;2023-06-26T08:25:02;101409.19;;;27.74;48.79
39773;BME280;25451;51.960;6.250;2023-06-26T08:27:28;101401.09;;;27.84;49.04
39773;BME280;25451;51.960;6.250;2023-06-26T08:29:53;101419.88;;;27.98;48.77
39773;BME280;25451;51.960;6.250;2023-06-26T08:32:19;101422.78;;;28.10;48.42
39773;BME280;25451;51.960;6.250;2023-06-26T08:34:44;101410.50;;;28.18;48.40
39773;BME280;25451;51.960;6.250;2023-06-26T08:37:09;101419.06;;;28.30;48.22
39773;BME280;25451;51.960;6.250;2023-06-26T08:39:35;101427.16;;;28.40;48.08
39773;BME280;25451;51.960;6.250;2023-06-26T08:42:00;101427.28;;;28.43;47.66
39773;BME280;25451;51.960;6.250;2023-06-26T08:44:26;101429.50;;;28.38;47.68
39773;BME280;25451;51.960;6.250;2023-06-26T08:46:51;101424.19;;;28.36;47.53
39773;BME280;25451;51.960;6.250;2023-06-26T08:52:23;101440.63;;;28.43;47.50
39773;BME280;25451;51.960;6.250;2023-06-26T08:54:55;101432.56;;;28.33;47.62
39773;BME280;25451;51.960;6.250;2023-06-26T08:57:23;101427.91;;;28.28;47.45
39773;BME280;25451;51.960;6.250;2023-06-26T08:59:49;101441.56;;;28.35;47.45
39773;BME280;25451;51.960;6.250;2023-06-26T09:02:15;101443.34;;;28.39;47.23
39773;BME280;25451;51.960;6.250;2023-06-26T09:04:40;101440.78;;;28.46;47.28
39773;BME280;25451;51.960;6.250;2023-06-26T09:07:06;101448.06;;;28.56;47.10
39773;BME280;25451;51.960;6.250;2023-06-26T09:09:32;101447.81;;;28.61;46.95
39773;BME280;25451;51.960;6.250;2023-06-26T09:11:57;101458.88;;;28.62;46.86
39773;BME280;25451;51.960;6.250;2023-06-26T09:14:23;101450.06;;;28.55;46.61
39773;BME280;25451;51.960;6.250;2023-06-26T09:16:48;101467.44;;;28.54;46.67
39773;BME280;25451;51.960;6.250;2023-06-26T09:19:15;101469.03;;;28.43;46.41
39773;BME280;25451;51.960;6.250;2023-06-26T09:21:41;101462.16;;;28.32;46.44
39773;BME280;25451;51.960;6.250;2023-06-26T09:24:08;101463.88;;;28.24;46.87
39773;BME280;25451;51.960;6.250;2023-06-26T09:26:40;101460.28;;;28.15;46.89
39773;BME280;25451;51.960;6.250;2023-06-26T09:29:06;101453.78;;;28.15;46.82
39773;BME280;25451;51.960;6.250;2023-06-26T09:31:32;101462.59;;;28.22;47.08
39773;BME280;25451;51.960;6.250;2023-06-26T09:33:59;101454.88;;;28.22;46.89
39773;BME280;25451;51.960;6.250;2023-06-26T09:36:27;101467.59;;;28.37;46.87
39773;BME280;25451;51.960;6.250;2023-06-26T09:38:53;101475.97;;;28.54;46.74
39773;BME280;25451;51.960;6.250;2023-06-26T09:41:18;101461.22;;;28.60;46.50
39773;BME280;25451;51.960;6.250;2023-06-26T09:43:48;101465.75;;;28.74;46.49
39773;BME280;25451;51.960;6.250;2023-06-26T09:46:24;101477.63;;;28.88;46.09
39773;BME280;25451;51.960;6.250;2023-06-26T09:48:50;101473.84;;;28.96;45.59
39773;BME280;25451;51.960;6.250;2023-06-26T09:51:22;101476.09;;;29.02;45.22
39773;BME280;25451;51.960;6.250;2023-06-26T09:53:48;101477.78;;;29.03;44.68
39773;BME280;25451;51.960;6.250;2023-06-26T09:56:17;101475.63;;;29.00;44.11
39773;BME280;25451;51.960;6.250;2023-06-26T09:58:43;101484.41;;;28.95;44.23
39773;BME280;25451;51.960;6.250;2023-06-26T10:01:09;101483.69;;;28.98;44.06
39773;BME280;25451;51.960;6.250;2023-06-26T10:03:35;101501.13;;;29.09;43.70
39773;BME280;25451;51.960;6.250;2023-06-26T10:06:02;101495.78;;;29.07;43.17
39773;BME280;25451;51.960;6.250;2023-06-26T10:08:28;101503.13;;;29.08;42.80
39773;BME280;25451;51.960;6.250;2023-06-26T10:10:55;101505.97;;;29.08;42.34
39773;BME280;25451;51.960;6.250;2023-06-26T10:13:25;101509.28;;;29.10;42.47
39773;BME280;25451;51.960;6.250;2023-06-26T10:15:53;101523.97;;;29.12;41.92
39773;BME280;25451;51.960;6.250;2023-06-26T10:18:23;101513.31;;;29.09;41.83
39773;BME280;25451;51.960;6.250;2023-06-26T10:20:51;101512.50;;;29.09;41.17
39773;BME280;25451;51.960;6.250;2023-06-26T10:23:19;101499.31;;;29.04;41.22
39773;BME280;25451;51.960;6.250;2023-06-26T10:25:46;101520.66;;;29.10;40.83
39773;BME280;25451;51.960;6.250;2023-06-26T10:28:15;101519.50;;;29.11;40.82
39773;BME280;25451;51.960;6.250;2023-06-26T10:30:42;101523.97;;;29.12;40.75
39773;BME280;25451;51.960;6.250;2023-06-26T10:33:10;101525.44;;;29.18;40.49
39773;BME280;25451;51.960;6.250;2023-06-26T10:35:43;101512.75;;;29.16;40.39
39773;BME280;25451;51.960;6.250;2023-06-26T10:38:09;101514.22;;;29.22;40.25
39773;BME280;25451;51.960;6.250;2023-06-26T10:40:45;101524.97;;;29.28;40.70
39773;BME280;25451;51.960;6.250;2023-06-26T10:43:13;101531.75;;;29.36;40.58
39773;BME280;25451;51.960;6.250;2023-06-26T10:45:45;101535.19;;;29.41;40.51
39773;BME280;25451;51.960;6.250;2023-06-26T10:48:14;101550.38;;;29.45;40.49
39773;BME280;25451;51.960;6.250;2023-06-26T10:50:39;101539.69;;;29.42;40.59
39773;BME280;25451;51.960;6.250;2023-06-26T10:56:02;101552.28;;;29.54;40.23
39773;BME280;25451;51.960;6.250;2023-06-26T10:58:29;101544.22;;;29.56;40.42
39773;BME280;25451;51.960;6.250;2023-06-26T11:03:46;101539.56;;;29.63;40.13
39773;BME280;25451;51.960;6.250;2023-06-26T11:06:16;101537.19;;;29.65;40.28
39773;BME280;25451;51.960;6.250;2023-06-26T11:08:53;101553.59;;;29.68;39.67
39773;BME280;25451;51.960;6.250;2023-06-26T11:11:22;101558.91;;;29.70;40.12
39773;BME280;25451;51.960;6.250;2023-06-26T11:14:06;101558.81;;;29.66;39.73
39773;BME280;25451;51.960;6.250;2023-06-26T11:16:33;101552.28;;;29.66;39.38
39773;BME280;25451;51.960;6.250;2023-06-26T11:18:58;101546.09;;;29.64;38.99
39773;BME280;25451;51.960;6.250;2023-06-26T11:21:24;101551.22;;;29.46;38.79
39773;BME280;25451;51.960;6.250;2023-06-26T11:23:50;101570.66;;;29.44;38.52
39773;BME280;25451;51.960;6.250;2023-06-26T11:26:20;101565.91;;;29.36;38.51
39773;BME280;25451;51.960;6.250;2023-06-26T11:28:52;101561.47;;;29.26;38.28
39773;BME280;25451;51.960;6.250;2023-06-26T11:33:50;101562.69;;;29.25;37.99
39773;BME280;25451;51.960;6.250;2023-06-26T11:36:15;101569.53;;;29.24;37.91
39773;BME280;25451;51.960;6.250;2023-06-26T11:38:40;101575.69;;;29.26;38.01
39773;BME280;25451;51.960;6.250;2023-06-26T11:41:06;101571.69;;;29.27;38.17
39773;BME280;25451;51.960;6.250;2023-06-26T11:43:34;101569.06;;;29.22;38.19
39773;BME280;25451;51.960;6.250;2023-06-26T11:45:59;101591.59;;;29.27;38.04
39773;BME280;25451;51.960;6.250;2023-06-26T11:48:25;101568.63;;;29.12;37.67
39773;BME280;25451;51.960;6.250;2023-06-26T11:50:51;101607.47;;;29.28;37.93
39773;BME280;25451;51.960;6.250;2023-06-26T11:53:19;101603.19;;;29.22;37.90
39773;BME280;25451;51.960;6.250;2023-06-26T11:55:44;101612.66;;;29.26;37.48
39773;BME280;25451;51.960;6.250;2023-06-26T11:58:10;101615.03;;;29.24;37.52
39773;BME280;25451;51.960;6.250;2023-06-26T12:00:35;101624.75;;;29.23;37.43
39773;BME280;25451;51.960;6.250;2023-06-26T12:03:00;101630.22;;;29.28;37.34
39773;BME280;25451;51.960;6.250;2023-06-26T12:05:26;101637.34;;;29.34;37.24
39773;BME280;25451;51.960;6.250;2023-06-26T12:07:51;101624.31;;;29.33;36.59
39773;BME280;25451;51.960;6.250;2023-06-26T12:10:18;101632.25;;;29.28;36.29
39773;BME280;25451;51.960;6.250;2023-06-26T12:12:45;101629.97;;;29.21;36.33
39773;BME280;25451;51.960;6.250;2023-06-26T12:15:15;101626.34;;;29.12;36.24
39773;BME280;25451;51.960;6.250;2023-06-26T12:17:41;101630.94;;;29.05;36.13
39773;BME280;25451;51.960;6.250;2023-06-26T12:20:20;101631.78;;;29.05;36.43
39773;BME280;25451;51.960;6.250;2023-06-26T12:22:47;101630.81;;;29.01;36.36
39773;BME280;25451;51.960;6.250;2023-06-26T12:25:13;101634.00;;;29.00;36.67
39773;BME280;25451;51.960;6.250;2023-06-26T12:27:38;101637.81;;;29.04;36.72
39773;BME280;25451;51.960;6.250;2023-06-26T12:30:04;101628.19;;;28.96;36.54
39773;BME280;25451;51.960;6.250;2023-06-26T12:32:30;101630.06;;;28.92;37.02
39773;BME280;25451;51.960;6.250;2023-06-26T12:34:57;101635.25;;;28.90;36.46
39773;BME280;25451;51.960;6.250;2023-06-26T12:37:22;101652.56;;;28.85;36.65
39773;BME280;25451;51.960;6.250;2023-06-26T12:39:57;101648.81;;;28.73;36.56
39773;BME280;25451;51.960;6.250;2023-06-26T12:42:25;101645.69;;;28.65;36.15
39773;BME280;25451;51.960;6.250;2023-06-26T12:44:52;101647.25;;;28.54;36.32
39773;BME280;25451;51.960;6.250;2023-06-26T12:47:19;101637.34;;;28.40;36.57
39773;BME280;25451;51.960;6.250;2023-06-26T12:49:45;101651.72;;;28.35;36.79
39773;BME280;25451;51.960;6.250;2023-06-26T12:52:16;101656.72;;;28.38;37.01
39773;BME280;25451;51.960;6.250;2023-06-26T12:54:44;101666.28;;;28.33;37.12
39773;BME280;25451;51.960;6.250;2023-06-26T12:57:10;101646.16;;;28.18;37.16
39773;BME280;25451;51.960;6.250;2023-06-26T12:59:38;101647.81;;;28.19;37.23